createdAt,value
2019-04-07T00:02:07.448Z,11.49
2019-04-07T00:07:13.834Z,11.65
2019-04-07T00:12:18.981Z,11.75
2019-04-07T00:17:25.141Z,10.77
2019-04-07T00:22:31.115Z,9.79
2019-04-07T00:27:37.068Z,10.69
2019-04-07T00:32:43.047Z,9.97
2019-04-07T00:37:49.179Z,10.05
2019-04-07T00:42:55.504Z,9.31
2019-04-07T00:48:00.535Z,9.20
2019-04-07T00:53:06.547Z,9.43
2019-04-07T00:58:12.577Z,10.03
2019-04-07T01:03:18.492Z,10.35
2019-04-07T01:08:24.478Z,11.40
2019-04-07T01:13:30.770Z,9.61
2019-04-07T01:18:37.091Z,10.03
2019-04-07T01:23:42.461Z,9.29
2019-04-07T01:28:47.459Z,9.97
2019-04-07T01:33:53.441Z,9.42
2019-04-07T01:38:59.956Z,9.71
2019-04-07T01:44:04.902Z,10.22
2019-04-07T01:49:11.607Z,8.48
2019-04-07T01:54:16.403Z,9.31
2019-04-07T01:59:22.353Z,7.36
2019-04-07T02:04:28.304Z,8.50
2019-04-07T02:09:34.343Z,8.65
2019-04-07T02:14:41.007Z,9.16
2019-04-07T02:19:46.020Z,9.04
2019-04-07T02:24:51.786Z,9.93
2019-04-07T02:29:57.916Z,8.39
2019-04-07T02:35:03.732Z,8.81
2019-04-07T02:40:09.680Z,10.14
2019-04-07T02:45:15.621Z,8.89
2019-04-07T02:50:22.009Z,8.19
2019-04-07T02:55:28.010Z,9.50
2019-04-07T03:00:32.604Z,8.98
2019-04-07T03:05:38.589Z,10.62
2019-04-07T03:10:44.573Z,10.21
2019-04-07T03:15:50.547Z,10.04
2019-04-07T03:20:56.537Z,9.42
2019-04-07T03:26:02.540Z,9.42
2019-04-07T03:31:10.176Z,9.16
2019-04-07T03:36:18.018Z,9.56
2019-04-07T03:41:19.672Z,9.70
2019-04-07T03:46:25.443Z,8.71
2019-04-07T03:51:31.923Z,10.42
2019-04-07T03:56:37.253Z,11.17
2019-04-07T04:01:43.601Z,11.12
2019-04-07T04:06:49.492Z,11.20
2019-04-07T04:11:53.942Z,10.63
2019-04-07T04:17:00.076Z,11.02
2019-04-07T04:22:05.955Z,13.60
2019-04-07T04:27:12.757Z,13.48
2019-04-07T04:32:17.462Z,11.94
2019-04-07T04:37:37.820Z,13.25
2019-04-07T04:42:29.112Z,13.23
2019-04-07T04:47:34.985Z,13.80
2019-04-07T04:52:41.062Z,12.56
2019-04-07T04:57:47.952Z,12.89
2019-04-07T05:02:52.623Z,12.62
2019-04-07T05:08:03.310Z,13.05
2019-04-07T05:13:04.531Z,13.82
2019-04-07T05:18:09.819Z,12.46
2019-04-07T05:23:16.221Z,13.89
2019-04-07T05:28:21.271Z,12.62
2019-04-07T05:33:27.766Z,14.76
2019-04-07T05:38:32.573Z,14.53
2019-04-07T05:43:38.687Z,15.47
2019-04-07T05:48:44.648Z,12.86
2019-04-07T05:53:50.620Z,13.00
2019-04-07T05:58:57.131Z,12.97
2019-04-07T06:04:02.458Z,12.43
2019-04-07T06:09:08.176Z,13.06
2019-04-07T06:14:15.153Z,13.28
2019-04-07T06:19:20.327Z,12.68
2019-04-07T06:24:26.866Z,12.11
2019-04-07T06:29:30.664Z,12.83
2019-04-07T06:34:39.761Z,12.46
2019-04-07T06:39:42.120Z,12.57
2019-04-07T06:44:50.343Z,11.53
2019-04-07T06:49:53.611Z,11.71
2019-04-07T06:55:00.203Z,12.05
2019-04-07T07:00:08.086Z,12.92
2019-04-07T07:05:12.751Z,13.15
2019-04-07T07:10:25.927Z,14.19
2019-04-07T07:15:21.777Z,13.55
2019-04-07T07:20:28.699Z,13.53
2019-04-07T07:25:33.335Z,13.92
2019-04-07T07:30:39.274Z,13.00
2019-04-07T07:35:48.198Z,13.70
2019-04-07T07:40:51.450Z,13.53
2019-04-07T07:45:56.743Z,14.00
2019-04-07T07:51:02.441Z,13.86
2019-04-07T07:56:12.101Z,13.30
2019-04-07T08:01:14.943Z,13.58
2019-04-07T08:06:19.444Z,13.97
2019-04-07T08:11:25.649Z,13.45
2019-04-07T08:16:31.562Z,14.43
2019-04-07T08:21:38.085Z,12.64
2019-04-07T08:26:43.700Z,12.63
2019-04-07T08:31:51.526Z,11.48
2019-04-07T08:36:54.172Z,10.80
2019-04-07T08:42:01.132Z,10.88
2019-04-07T08:47:05.589Z,10.67
2019-04-07T08:52:12.395Z,9.78
2019-04-07T08:57:17.324Z,10.53
2019-04-07T09:02:26.040Z,9.08
2019-04-07T09:07:28.851Z,8.18
2019-04-07T09:12:34.949Z,8.73
2019-04-07T09:17:44.476Z,8.22
2019-04-07T09:22:45.345Z,8.80
2019-04-07T09:27:52.212Z,7.86
2019-04-07T09:32:56.886Z,7.06
2019-04-07T09:38:03.158Z,7.03
2019-04-07T09:43:08.916Z,6.31
2019-04-07T09:48:17.691Z,5.62
2019-04-07T09:53:21.427Z,5.72
2019-04-07T09:58:26.298Z,5.43
2019-04-07T10:03:32.026Z,5.13
2019-04-07T10:08:38.080Z,33.12
2019-04-07T10:13:44.233Z,12.48
2019-04-07T10:18:50.897Z,3.85
2019-04-07T10:23:56.353Z,4.18
2019-04-07T10:29:01.797Z,3.77
2019-04-07T10:34:08.079Z,3.69
2019-04-07T10:39:13.013Z,2.83
2019-04-07T10:44:18.012Z,2.73
2019-04-07T10:49:24.131Z,3.02
2019-04-07T10:54:30.227Z,3.15
2019-04-07T10:59:36.882Z,2.50
2019-04-07T11:04:41.878Z,3.53
2019-04-07T11:09:47.864Z,2.48
2019-04-07T11:14:54.714Z,2.38
2019-04-07T11:19:59.435Z,3.19
2019-04-07T11:25:05.483Z,2.45
2019-04-07T11:30:11.542Z,2.81
2019-04-07T11:35:17.666Z,2.56
2019-04-07T11:40:24.430Z,2.75
2019-04-07T11:45:29.300Z,3.25
2019-04-07T11:50:36.269Z,2.77
2019-04-07T11:55:41.039Z,2.87
2019-04-07T12:00:47.384Z,2.65
2019-04-07T12:05:53.865Z,3.09
2019-04-07T12:11:01.976Z,2.78
2019-04-07T12:16:04.200Z,3.78
2019-04-07T12:21:19.357Z,2.77
2019-04-07T12:26:16.047Z,2.71
2019-04-07T12:31:22.697Z,3.04
2019-04-07T12:36:30.634Z,2.75
2019-04-07T12:41:33.088Z,2.85
2019-04-07T12:46:38.946Z,3.74
2019-04-07T12:51:45.031Z,2.98
2019-04-07T12:56:51.061Z,3.53
2019-04-07T13:01:57.709Z,4.14
2019-04-07T13:07:03.429Z,3.83
2019-04-07T13:12:08.050Z,3.54
2019-04-07T13:17:14.708Z,3.54
2019-04-07T13:22:20.287Z,3.41
2019-04-07T13:27:25.098Z,3.39
2019-04-07T13:32:40.277Z,4.06
2019-04-07T13:37:36.772Z,5.52
2019-04-07T13:42:43.026Z,3.62
2019-04-07T13:47:48.723Z,3.82
2019-04-07T13:52:57.853Z,3.61
2019-04-07T13:58:00.760Z,3.95
2019-04-07T14:03:05.894Z,4.11
2019-04-07T14:08:11.851Z,3.35
2019-04-07T14:13:19.071Z,4.01
2019-04-07T14:18:24.517Z,3.96
2019-04-07T14:23:29.805Z,3.50
2019-04-07T14:28:35.709Z,3.38
2019-04-07T14:33:41.453Z,4.17
2019-04-07T14:38:47.646Z,3.45
2019-04-07T14:43:53.492Z,3.30
2019-04-07T14:49:00.025Z,4.08
2019-04-07T14:54:05.045Z,3.83
2019-04-07T14:59:11.637Z,3.48
2019-04-07T15:04:16.638Z,3.76
2019-04-07T15:09:23.967Z,3.70
2019-04-07T15:14:31.467Z,4.37
2019-04-07T15:19:34.179Z,3.85
2019-04-07T15:24:41.088Z,4.80
2019-04-07T15:29:46.908Z,5.07
2019-04-07T15:34:51.448Z,6.78
2019-04-07T15:40:00.976Z,4.97
2019-04-07T15:45:02.874Z,5.10
2019-04-07T15:50:09.619Z,5.38
2019-04-07T15:55:14.774Z,5.31
2019-04-07T16:00:20.554Z,4.82
2019-04-07T16:05:26.759Z,5.55
2019-04-07T16:10:32.560Z,5.77
2019-04-07T16:15:38.550Z,6.19
2019-04-07T16:20:45.146Z,6.66
2019-04-07T16:25:51.092Z,5.58
2019-04-07T16:30:56.256Z,4.91
2019-04-07T16:36:01.355Z,4.95
2019-04-07T16:41:07.950Z,5.54
2019-04-07T16:46:16.947Z,5.06
2019-04-07T16:51:18.442Z,7.34
2019-04-07T16:56:25.270Z,5.56
2019-04-07T17:01:30.287Z,5.68
2019-04-07T17:06:36.400Z,5.18
2019-04-07T17:11:43.038Z,6.55
2019-04-07T17:16:48.424Z,5.88
2019-04-07T17:21:53.428Z,5.53
2019-04-07T17:27:00.147Z,6.17
2019-04-07T17:32:04.929Z,6.83
2019-04-07T17:37:11.758Z,6.41
2019-04-07T17:42:18.388Z,7.28
2019-04-07T17:47:22.091Z,6.42
2019-04-07T17:52:29.054Z,7.01
2019-04-07T17:57:36.611Z,6.73
2019-04-07T18:02:44.941Z,6.64
2019-04-07T18:07:45.872Z,7.09
2019-04-07T18:12:51.554Z,7.53
2019-04-07T18:17:56.300Z,8.28
2019-04-07T18:23:03.291Z,7.47
2019-04-07T18:28:08.725Z,6.42
2019-04-07T18:33:16.821Z,6.80
2019-04-07T18:38:19.507Z,6.68
2019-04-07T18:43:25.617Z,8.27
2019-04-07T18:48:30.810Z,7.92
2019-04-07T18:53:37.340Z,8.10
2019-04-07T18:58:44.671Z,7.15
2019-04-07T19:03:51.167Z,6.41
2019-04-07T19:08:57.468Z,8.28
2019-04-07T19:14:14.066Z,6.62
2019-04-07T19:19:04.947Z,6.28
2019-04-07T19:24:11.604Z,8.17
2019-04-07T19:29:16.339Z,7.11
2019-04-07T19:34:22.561Z,6.31
2019-04-07T19:39:28.330Z,7.88
2019-04-07T19:44:37.251Z,6.98
2019-04-07T19:49:38.968Z,6.66
2019-04-07T19:54:48.669Z,11.63
2019-04-07T19:59:50.925Z,6.69
2019-04-07T20:04:57.072Z,7.42
2019-04-07T20:10:03.092Z,5.76
2019-04-07T20:15:10.958Z,5.98
2019-04-07T20:20:14.713Z,5.65
2019-04-07T20:25:20.747Z,11.67
2019-04-07T20:30:28.664Z,6.04
2019-04-07T20:35:32.412Z,6.17
2019-04-07T20:40:42.732Z,6.33
2019-04-07T20:45:47.463Z,6.86
2019-04-07T20:50:49.877Z,6.67
2019-04-07T20:55:56.070Z,6.66
2019-04-07T21:01:04.547Z,7.09
2019-04-07T21:06:07.012Z,6.99
2019-04-07T21:11:13.209Z,6.81
2019-04-07T21:16:23.514Z,7.39
2019-04-07T21:21:25.564Z,7.34
2019-04-07T21:26:31.973Z,7.13
2019-04-07T21:31:36.522Z,7.71
2019-04-07T21:36:41.723Z,7.29
2019-04-07T21:41:47.868Z,7.90
2019-04-07T21:46:54.772Z,8.53
2019-04-07T21:51:59.083Z,8.00
2019-04-07T21:57:04.898Z,8.37
2019-04-07T22:02:12.128Z,8.30
2019-04-07T22:07:17.294Z,9.20
2019-04-07T22:12:25.687Z,8.17
2019-04-07T22:17:27.695Z,9.07
2019-04-07T22:22:33.479Z,8.55
2019-04-07T22:27:39.444Z,8.44
2019-04-07T22:32:45.448Z,8.42
2019-04-07T22:37:52.615Z,8.81
2019-04-07T22:42:57.316Z,8.59
2019-04-07T22:48:03.489Z,8.48
2019-04-07T22:53:09.398Z,8.59
2019-04-07T22:58:15.928Z,8.73
2019-04-07T23:03:20.628Z,9.22
2019-04-07T23:08:26.617Z,9.33
2019-04-07T23:13:32.607Z,9.12
2019-04-07T23:18:38.593Z,9.26
2019-04-07T23:23:44.594Z,9.23
2019-04-07T23:28:50.698Z,9.45
2019-04-07T23:33:56.609Z,10.16
2019-04-07T23:39:03.496Z,9.66
2019-04-07T23:44:08.145Z,10.29
2019-04-07T23:49:14.112Z,9.68
2019-04-07T23:54:20.075Z,9.44
2019-04-07T23:59:26.965Z,9.58
